北海道・東北TAF電文


新千歳(RJCC)
7/19 14h
TAF RJCC 190505Z 1906/2012 15020KT 9999 -SHRA FEW005 BKN015 TEMPO
1906/1911 15023G33KT 3000 SHRA BR FEW003 BKN005 TEMPO
1911/1918 FEW005 BKN008 BECMG 1913/1915 16010KT TEMPO
1918/2000 3000 -SHRA BR FEW003 BKN005 TEMPO 2000/2003
FEW005 BKN008=

旭川(RJEC)
7/19 14h
TAF RJEC 190505Z 1906/2012 19018KT 9999 FEW008 BKN025 TEMPO
1906/1912 19020G30KT 4000 -SHRA BR FEW005 BKN008 BECMG
2003/2006 26005KT BECMG 2009/2012 18006KT=

帯広(RJCB)
7/19 17h
TAF AMD RJCB 190837Z 1908/2012 15012KT 7000 FEW001 BKN015
TEMPO 1908/1918 0700 -SHRA FG VV001
BECMG 1916/1918 35005KT
TEMPO 1918/2000 1500 -SHRA BR FEW001 BKN003
TEMPO 2000/2003 FEW003 BKN006
BECMG 2003/2006 15006KT=

釧路(RJCK)
7/19 14h
TAF RJCK 190505Z 1906/2012 17010KT 3000 BR FEW003 BKN006 TEMPO
1906/1912 0700 -SHRA FG VV001 TEMPO 1912/2000 0500 -SHRA FG
VV001 TEMPO 2000/2012 1500 BR FEW001 BKN003=

女満別(RJCM)
7/19 14h
TAF RJCM 190505Z 1906/2012 19014KT 9999 FEW008 BKN015=

函館(RJCH)
7/19 14h
TAF RJCH 190505Z 1906/2012 22010KT 9999 FEW008 BKN015 TEMPO
1906/1910 4000 -SHRA BR FEW005 BKN008 TEMPO 1910/1921 4000
-SHRA BR FEW002 BKN004 BECMG 1918/1921 02005KT TEMPO
1921/2003 4000 -SHRA BR FEW005 BKN008 BECMG 2000/2003
24012KT=

青森(RJSA)
7/19 14h
TAF RJSA 190506Z 1906/2012 22010KT 8000 -SHRA FEW015 BKN030 TEMPO
1915/1921 4000 SHRA BR FEW005 BKN008 TEMPO 1921/2000 FEW005
BKN008=

秋田(RJSK)
7/19 14h
TAF RJSK 190506Z 1906/2012 14004KT 9999 FEW010 BKN020 TEMPO
1916/2000 3000 SHRA BR FEW003 BKN005 BECMG 1921/2000
27012KT=

花巻(RJSI)
7/19 14h
TAF RJSI 190506Z 1906/2012 18008KT 9999 FEW015 BKN030 TEMPO
1912/1921 4000 BR FEW005 BKN008=

仙台(RJSS)
7/19 14h
TAF RJSS 190508Z 1906/2012 14006KT 9999 FEW030 BECMG 1912/1914
22006KT TEMPO 1915/2000 4000 -SHRA BR FEW002 BKN005 BECMG
2003/2006 28010KT BECMG 2006/2009 14008KT=

福島(RJSF)
7/19 18h
TAF AMD RJSF 190902Z 1909/2012 12005KT 8000 -SHRA FEW015 BKN030
TEMPO 1909/1912 4000 -TSRA BR FEW015 BKN030 FEW030CB BECMG
1911/1913 35004KT TEMPO 1914/1921 FEW005 BKN008=
Copyright(c) 2014 International Meteorological & Oceanographic Consultants Co,.Ltd. All Rights Reserved. Design by http://f-tpl.com